sensor_id;sensor_type;location;lat;lon;timestamp;P1;durP1;ratioP1;P2;durP2;ratioP2
11535;SDS011;5824;49.336;8.652;2023-04-25T00:00:29;5.10;;;4.60;;
11535;SDS011;5824;49.336;8.652;2023-04-25T00:02:55;7.63;;;5.30;;
11535;SDS011;5824;49.336;8.652;2023-04-25T00:05:21;5.97;;;4.93;;
11535;SDS011;5824;49.336;8.652;2023-04-25T00:07:48;5.73;;;5.10;;
11535;SDS011;5824;49.336;8.652;2023-04-25T00:10:14;6.43;;;5.30;;
11535;SDS011;5824;49.336;8.652;2023-04-25T00:12:40;5.90;;;4.67;;
11535;SDS011;5824;49.336;8.652;2023-04-25T00:15:06;6.17;;;5.40;;
11535;SDS011;5824;49.336;8.652;2023-04-25T00:17:32;5.20;;;4.70;;
11535;SDS011;5824;49.336;8.652;2023-04-25T00:19:59;5.07;;;4.57;;
11535;SDS011;5824;49.336;8.652;2023-04-25T00:22:25;7.43;;;5.30;;
11535;SDS011;5824;49.336;8.652;2023-04-25T00:24:51;6.33;;;4.93;;
11535;SDS011;5824;49.336;8.652;2023-04-25T00:27:18;7.17;;;5.33;;
11535;SDS011;5824;49.336;8.652;2023-04-25T00:29:43;8.33;;;5.03;;
11535;SDS011;5824;49.336;8.652;2023-04-25T00:32:09;6.80;;;4.70;;
11535;SDS011;5824;49.336;8.652;2023-04-25T00:34:35;6.30;;;4.63;;
11535;SDS011;5824;49.336;8.652;2023-04-25T00:37:01;5.70;;;5.00;;
11535;SDS011;5824;49.336;8.652;2023-04-25T00:39:27;7.37;;;5.23;;
11535;SDS011;5824;49.336;8.652;2023-04-25T00:41:52;7.50;;;4.90;;
11535;SDS011;5824;49.336;8.652;2023-04-25T00:44:19;6.07;;;5.20;;
11535;SDS011;5824;49.336;8.652;2023-04-25T00:46:46;8.67;;;5.00;;
11535;SDS011;5824;49.336;8.652;2023-04-25T00:49:12;8.33;;;5.13;;
11535;SDS011;5824;49.336;8.652;2023-04-25T00:51:40;7.30;;;4.90;;
11535;SDS011;5824;49.336;8.652;2023-04-25T00:54:06;7.73;;;5.70;;
11535;SDS011;5824;49.336;8.652;2023-04-25T00:56:31;7.30;;;5.20;;
11535;SDS011;5824;49.336;8.652;2023-04-25T00:58:57;7.13;;;4.93;;
11535;SDS011;5824;49.336;8.652;2023-04-25T01:01:23;6.80;;;5.30;;
11535;SDS011;5824;49.336;8.652;2023-04-25T01:03:49;6.57;;;5.83;;
11535;SDS011;5824;49.336;8.652;2023-04-25T01:06:14;6.80;;;5.20;;
11535;SDS011;5824;49.336;8.652;2023-04-25T01:08:41;7.03;;;5.47;;
11535;SDS011;5824;49.336;8.652;2023-04-25T01:11:06;8.70;;;5.63;;
11535;SDS011;5824;49.336;8.652;2023-04-25T01:13:32;8.17;;;5.40;;
11535;SDS011;5824;49.336;8.652;2023-04-25T01:15:59;8.37;;;5.33;;
11535;SDS011;5824;49.336;8.652;2023-04-25T01:18:25;8.60;;;5.43;;
11535;SDS011;5824;49.336;8.652;2023-04-25T01:20:51;7.83;;;5.50;;
11535;SDS011;5824;49.336;8.652;2023-04-25T01:23:18;8.33;;;5.60;;
11535;SDS011;5824;49.336;8.652;2023-04-25T01:25:45;9.50;;;5.80;;
11535;SDS011;5824;49.336;8.652;2023-04-25T01:28:11;7.27;;;5.80;;
11535;SDS011;5824;49.336;8.652;2023-04-25T01:30:37;6.47;;;5.57;;
11535;SDS011;5824;49.336;8.652;2023-04-25T01:33:04;7.40;;;6.27;;
11535;SDS011;5824;49.336;8.652;2023-04-25T01:35:30;8.27;;;5.90;;
11535;SDS011;5824;49.336;8.652;2023-04-25T01:37:56;6.67;;;5.70;;
11535;SDS011;5824;49.336;8.652;2023-04-25T01:40:22;6.73;;;5.67;;
11535;SDS011;5824;49.336;8.652;2023-04-25T01:42:49;8.53;;;5.27;;
11535;SDS011;5824;49.336;8.652;2023-04-25T01:45:16;7.80;;;5.47;;
11535;SDS011;5824;49.336;8.652;2023-04-25T01:47:42;7.57;;;5.70;;
11535;SDS011;5824;49.336;8.652;2023-04-25T01:50:08;7.00;;;5.77;;
11535;SDS011;5824;49.336;8.652;2023-04-25T01:52:36;7.13;;;5.60;;
11535;SDS011;5824;49.336;8.652;2023-04-25T01:55:01;6.73;;;5.80;;
11535;SDS011;5824;49.336;8.652;2023-04-25T01:57:27;6.60;;;5.70;;
11535;SDS011;5824;49.336;8.652;2023-04-25T01:59:55;7.77;;;6.33;;
11535;SDS011;5824;49.336;8.652;2023-04-25T02:02:25;9.37;;;6.70;;
11535;SDS011;5824;49.336;8.652;2023-04-25T02:04:51;7.13;;;5.67;;
11535;SDS011;5824;49.336;8.652;2023-04-25T02:07:16;7.80;;;5.63;;
11535;SDS011;5824;49.336;8.652;2023-04-25T02:09:42;8.90;;;6.03;;
11535;SDS011;5824;49.336;8.652;2023-04-25T02:12:09;11.10;;;7.40;;
11535;SDS011;5824;49.336;8.652;2023-04-25T02:14:35;9.27;;;6.80;;
11535;SDS011;5824;49.336;8.652;2023-04-25T02:17:00;10.60;;;7.73;;
11535;SDS011;5824;49.336;8.652;2023-04-25T02:19:26;10.70;;;7.20;;
11535;SDS011;5824;49.336;8.652;2023-04-25T02:21:51;10.13;;;7.30;;
11535;SDS011;5824;49.336;8.652;2023-04-25T02:24:17;9.60;;;7.27;;
11535;SDS011;5824;49.336;8.652;2023-04-25T02:26:42;13.30;;;7.57;;
11535;SDS011;5824;49.336;8.652;2023-04-25T02:29:09;9.40;;;7.40;;
11535;SDS011;5824;49.336;8.652;2023-04-25T02:31:34;9.47;;;7.60;;
11535;SDS011;5824;49.336;8.652;2023-04-25T02:34:00;10.50;;;8.13;;
11535;SDS011;5824;49.336;8.652;2023-04-25T02:36:26;12.27;;;7.90;;
11535;SDS011;5824;49.336;8.652;2023-04-25T02:38:52;11.40;;;8.03;;
11535;SDS011;5824;49.336;8.652;2023-04-25T02:41:18;9.70;;;7.40;;
11535;SDS011;5824;49.336;8.652;2023-04-25T02:43:43;14.67;;;7.23;;
11535;SDS011;5824;49.336;8.652;2023-04-25T02:46:09;11.60;;;8.00;;
11535;SDS011;5824;49.336;8.652;2023-04-25T02:48:34;11.17;;;7.23;;
11535;SDS011;5824;49.336;8.652;2023-04-25T02:51:00;11.10;;;7.27;;
11535;SDS011;5824;49.336;8.652;2023-04-25T02:53:25;10.73;;;6.90;;
11535;SDS011;5824;49.336;8.652;2023-04-25T02:55:51;9.80;;;6.80;;
11535;SDS011;5824;49.336;8.652;2023-04-25T02:58:17;10.00;;;7.37;;
11535;SDS011;5824;49.336;8.652;2023-04-25T03:00:43;11.50;;;7.97;;
11535;SDS011;5824;49.336;8.652;2023-04-25T03:03:08;14.80;;;9.10;;
11535;SDS011;5824;49.336;8.652;2023-04-25T03:05:34;13.80;;;8.30;;
11535;SDS011;5824;49.336;8.652;2023-04-25T03:08:00;12.83;;;8.67;;
11535;SDS011;5824;49.336;8.652;2023-04-25T03:10:25;18.47;;;9.07;;
11535;SDS011;5824;49.336;8.652;2023-04-25T03:12:51;15.47;;;8.33;;
11535;SDS011;5824;49.336;8.652;2023-04-25T03:15:18;12.50;;;7.77;;
11535;SDS011;5824;49.336;8.652;2023-04-25T03:17:43;10.00;;;7.47;;
11535;SDS011;5824;49.336;8.652;2023-04-25T03:20:09;13.23;;;7.80;;
11535;SDS011;5824;49.336;8.652;2023-04-25T03:22:36;9.73;;;7.00;;
11535;SDS011;5824;49.336;8.652;2023-04-25T03:25:01;11.20;;;7.90;;
11535;SDS011;5824;49.336;8.652;2023-04-25T03:27:27;13.20;;;8.33;;
11535;SDS011;5824;49.336;8.652;2023-04-25T03:29:53;11.87;;;7.83;;
11535;SDS011;5824;49.336;8.652;2023-04-25T03:32:18;13.80;;;9.27;;
11535;SDS011;5824;49.336;8.652;2023-04-25T03:34:44;13.03;;;8.47;;
11535;SDS011;5824;49.336;8.652;2023-04-25T03:37:10;13.80;;;9.10;;
11535;SDS011;5824;49.336;8.652;2023-04-25T03:39:35;11.70;;;7.80;;
11535;SDS011;5824;49.336;8.652;2023-04-25T03:42:01;12.97;;;9.07;;
11535;SDS011;5824;49.336;8.652;2023-04-25T03:44:27;11.70;;;8.20;;
11535;SDS011;5824;49.336;8.652;2023-04-25T03:46:53;10.70;;;8.10;;
11535;SDS011;5824;49.336;8.652;2023-04-25T03:49:18;11.60;;;8.27;;
11535;SDS011;5824;49.336;8.652;2023-04-25T03:51:44;11.00;;;7.80;;
11535;SDS011;5824;49.336;8.652;2023-04-25T03:54:10;14.87;;;8.30;;
11535;SDS011;5824;49.336;8.652;2023-04-25T03:56:35;12.27;;;7.80;;
11535;SDS011;5824;49.336;8.652;2023-04-25T03:59:01;13.93;;;8.77;;
11535;SDS011;5824;49.336;8.652;2023-04-25T04:01:26;14.50;;;8.90;;
11535;SDS011;5824;49.336;8.652;2023-04-25T04:03:52;16.53;;;8.20;;
11535;SDS011;5824;49.336;8.652;2023-04-25T04:06:17;11.07;;;8.00;;
11535;SDS011;5824;49.336;8.652;2023-04-25T04:08:45;13.10;;;8.47;;
11535;SDS011;5824;49.336;8.652;2023-04-25T04:11:11;13.57;;;7.90;;
11535;SDS011;5824;49.336;8.652;2023-04-25T04:13:37;12.37;;;8.23;;
11535;SDS011;5824;49.336;8.652;2023-04-25T04:16:02;13.67;;;8.73;;
11535;SDS011;5824;49.336;8.652;2023-04-25T04:18:29;16.73;;;8.90;;
11535;SDS011;5824;49.336;8.652;2023-04-25T04:20:55;12.60;;;8.20;;
11535;SDS011;5824;49.336;8.652;2023-04-25T04:23:22;12.83;;;8.87;;
11535;SDS011;5824;49.336;8.652;2023-04-25T04:25:48;13.90;;;9.30;;
11535;SDS011;5824;49.336;8.652;2023-04-25T04:28:14;11.93;;;8.77;;
11535;SDS011;5824;49.336;8.652;2023-04-25T04:30:41;13.63;;;9.57;;
11535;SDS011;5824;49.336;8.652;2023-04-25T04:33:07;13.27;;;8.50;;
11535;SDS011;5824;49.336;8.652;2023-04-25T04:35:33;13.80;;;8.77;;
11535;SDS011;5824;49.336;8.652;2023-04-25T04:37:58;14.30;;;10.30;;
11535;SDS011;5824;49.336;8.652;2023-04-25T04:40:24;17.60;;;9.97;;
11535;SDS011;5824;49.336;8.652;2023-04-25T04:42:50;13.20;;;8.53;;
11535;SDS011;5824;49.336;8.652;2023-04-25T04:45:18;13.50;;;9.70;;
11535;SDS011;5824;49.336;8.652;2023-04-25T04:47:43;14.10;;;9.50;;
11535;SDS011;5824;49.336;8.652;2023-04-25T04:50:10;16.60;;;10.50;;
11535;SDS011;5824;49.336;8.652;2023-04-25T04:52:36;18.23;;;10.43;;
11535;SDS011;5824;49.336;8.652;2023-04-25T04:55:02;13.00;;;8.87;;
11535;SDS011;5824;49.336;8.652;2023-04-25T04:57:28;13.67;;;9.80;;
11535;SDS011;5824;49.336;8.652;2023-04-25T04:59:54;14.70;;;10.13;;
11535;SDS011;5824;49.336;8.652;2023-04-25T05:02:20;18.93;;;9.90;;
11535;SDS011;5824;49.336;8.652;2023-04-25T05:04:45;16.23;;;9.50;;
11535;SDS011;5824;49.336;8.652;2023-04-25T05:07:11;12.13;;;8.27;;
11535;SDS011;5824;49.336;8.652;2023-04-25T05:09:37;15.63;;;10.43;;
11535;SDS011;5824;49.336;8.652;2023-04-25T05:12:03;29.27;;;11.17;;
11535;SDS011;5824;49.336;8.652;2023-04-25T05:14:28;16.53;;;10.27;;
11535;SDS011;5824;49.336;8.652;2023-04-25T05:16:54;15.50;;;9.87;;
11535;SDS011;5824;49.336;8.652;2023-04-25T05:19:20;13.40;;;9.60;;
11535;SDS011;5824;49.336;8.652;2023-04-25T05:21:45;15.50;;;10.00;;
11535;SDS011;5824;49.336;8.652;2023-04-25T05:24:11;14.57;;;9.47;;
11535;SDS011;5824;49.336;8.652;2023-04-25T05:26:37;15.03;;;9.50;;
11535;SDS011;5824;49.336;8.652;2023-04-25T05:29:02;14.50;;;9.83;;
11535;SDS011;5824;49.336;8.652;2023-04-25T05:31:28;13.80;;;9.63;;
11535;SDS011;5824;49.336;8.652;2023-04-25T05:33:54;15.13;;;9.73;;
11535;SDS011;5824;49.336;8.652;2023-04-25T05:36:19;13.87;;;9.57;;
11535;SDS011;5824;49.336;8.652;2023-04-25T05:38:45;13.77;;;9.53;;
11535;SDS011;5824;49.336;8.652;2023-04-25T05:41:10;16.13;;;9.93;;
11535;SDS011;5824;49.336;8.652;2023-04-25T05:43:36;13.70;;;9.13;;
11535;SDS011;5824;49.336;8.652;2023-04-25T05:46:02;12.83;;;9.50;;
11535;SDS011;5824;49.336;8.652;2023-04-25T05:48:27;14.50;;;10.03;;
11535;SDS011;5824;49.336;8.652;2023-04-25T05:50:53;14.83;;;10.00;;
11535;SDS011;5824;49.336;8.652;2023-04-25T05:53:19;10.53;;;8.60;;
11535;SDS011;5824;49.336;8.652;2023-04-25T05:55:46;16.30;;;10.00;;
11535;SDS011;5824;49.336;8.652;2023-04-25T05:58:11;14.50;;;9.73;;
11535;SDS011;5824;49.336;8.652;2023-04-25T06:00:37;14.50;;;9.87;;
11535;SDS011;5824;49.336;8.652;2023-04-25T06:03:03;13.20;;;9.63;;
11535;SDS011;5824;49.336;8.652;2023-04-25T06:05:28;16.50;;;9.73;;
11535;SDS011;5824;49.336;8.652;2023-04-25T06:07:54;13.40;;;9.70;;
11535;SDS011;5824;49.336;8.652;2023-04-25T06:10:20;14.30;;;9.17;;
11535;SDS011;5824;49.336;8.652;2023-04-25T06:12:45;12.87;;;9.00;;
11535;SDS011;5824;49.336;8.652;2023-04-25T06:15:11;15.30;;;9.13;;
11535;SDS011;5824;49.336;8.652;2023-04-25T06:17:37;13.70;;;9.20;;
11535;SDS011;5824;49.336;8.652;2023-04-25T06:20:02;14.70;;;10.30;;
11535;SDS011;5824;49.336;8.652;2023-04-25T06:22:29;13.67;;;10.13;;
11535;SDS011;5824;49.336;8.652;2023-04-25T06:27:23;15.87;;;9.90;;
11535;SDS011;5824;49.336;8.652;2023-04-25T06:32:16;14.00;;;10.37;;
11535;SDS011;5824;49.336;8.652;2023-04-25T06:37:18;15.30;;;9.97;;
11535;SDS011;5824;49.336;8.652;2023-04-25T06:44:50;14.47;;;9.90;;
11535;SDS011;5824;49.336;8.652;2023-04-25T06:47:15;22.43;;;9.77;;
11535;SDS011;5824;49.336;8.652;2023-04-25T06:52:15;17.03;;;10.13;;
11535;SDS011;5824;49.336;8.652;2023-04-25T06:54:42;16.20;;;11.07;;
11535;SDS011;5824;49.336;8.652;2023-04-25T06:57:08;15.60;;;10.00;;
11535;SDS011;5824;49.336;8.652;2023-04-25T06:59:34;16.63;;;10.50;;
11535;SDS011;5824;49.336;8.652;2023-04-25T07:01:59;17.03;;;11.00;;
11535;SDS011;5824;49.336;8.652;2023-04-25T07:04:25;20.07;;;10.80;;
11535;SDS011;5824;49.336;8.652;2023-04-25T07:09:29;16.17;;;10.50;;
11535;SDS011;5824;49.336;8.652;2023-04-25T07:11:55;15.17;;;10.60;;
11535;SDS011;5824;49.336;8.652;2023-04-25T07:14:21;15.03;;;10.60;;
11535;SDS011;5824;49.336;8.652;2023-04-25T07:16:47;20.67;;;10.73;;
11535;SDS011;5824;49.336;8.652;2023-04-25T07:19:13;15.90;;;11.17;;
11535;SDS011;5824;49.336;8.652;2023-04-25T07:21:38;15.20;;;10.87;;
11535;SDS011;5824;49.336;8.652;2023-04-25T07:24:04;17.87;;;11.73;;
11535;SDS011;5824;49.336;8.652;2023-04-25T07:26:29;23.33;;;13.70;;
11535;SDS011;5824;49.336;8.652;2023-04-25T07:28:55;17.90;;;12.40;;
11535;SDS011;5824;49.336;8.652;2023-04-25T07:31:21;19.57;;;12.03;;
11535;SDS011;5824;49.336;8.652;2023-04-25T07:33:47;19.80;;;12.47;;
11535;SDS011;5824;49.336;8.652;2023-04-25T07:36:13;21.33;;;13.30;;
11535;SDS011;5824;49.336;8.652;2023-04-25T07:38:40;19.87;;;11.93;;
11535;SDS011;5824;49.336;8.652;2023-04-25T07:41:06;22.63;;;12.90;;
11535;SDS011;5824;49.336;8.652;2023-04-25T07:43:31;18.93;;;11.37;;
11535;SDS011;5824;49.336;8.652;2023-04-25T07:45:57;20.73;;;11.87;;
11535;SDS011;5824;49.336;8.652;2023-04-25T07:48:22;20.57;;;10.80;;
11535;SDS011;5824;49.336;8.652;2023-04-25T07:50:48;20.33;;;10.10;;
11535;SDS011;5824;49.336;8.652;2023-04-25T07:53:14;13.60;;;8.60;;
11535;SDS011;5824;49.336;8.652;2023-04-25T07:55:39;16.40;;;9.50;;
11535;SDS011;5824;49.336;8.652;2023-04-25T07:58:05;19.47;;;8.47;;
11535;SDS011;5824;49.336;8.652;2023-04-25T08:00:34;15.30;;;8.80;;
11535;SDS011;5824;49.336;8.652;2023-04-25T08:03:00;17.60;;;9.00;;
11535;SDS011;5824;49.336;8.652;2023-04-25T08:05:26;13.27;;;8.43;;
11535;SDS011;5824;49.336;8.652;2023-04-25T08:07:51;16.27;;;7.23;;
11535;SDS011;5824;49.336;8.652;2023-04-25T08:10:17;17.67;;;8.40;;
11535;SDS011;5824;49.336;8.652;2023-04-25T08:12:42;14.00;;;7.53;;
11535;SDS011;5824;49.336;8.652;2023-04-25T08:15:08;14.47;;;7.23;;
11535;SDS011;5824;49.336;8.652;2023-04-25T08:17:34;15.00;;;7.80;;
11535;SDS011;5824;49.336;8.652;2023-04-25T08:19:59;16.20;;;8.70;;
11535;SDS011;5824;49.336;8.652;2023-04-25T08:22:25;16.93;;;7.33;;
11535;SDS011;5824;49.336;8.652;2023-04-25T08:24:50;12.70;;;7.90;;
11535;SDS011;5824;49.336;8.652;2023-04-25T08:27:17;23.03;;;8.70;;
11535;SDS011;5824;49.336;8.652;2023-04-25T08:29:43;18.43;;;8.73;;
11535;SDS011;5824;49.336;8.652;2023-04-25T08:32:08;12.80;;;7.60;;
11535;SDS011;5824;49.336;8.652;2023-04-25T08:34:34;13.87;;;7.20;;
11535;SDS011;5824;49.336;8.652;2023-04-25T08:37:01;16.70;;;7.03;;
11535;SDS011;5824;49.336;8.652;2023-04-25T08:39:29;15.30;;;6.90;;
11535;SDS011;5824;49.336;8.652;2023-04-25T08:41:54;17.33;;;8.20;;
11535;SDS011;5824;49.336;8.652;2023-04-25T08:44:21;21.43;;;7.77;;
11535;SDS011;5824;49.336;8.652;2023-04-25T08:46:48;12.33;;;6.90;;
11535;SDS011;5824;49.336;8.652;2023-04-25T08:49:14;14.43;;;7.00;;
11535;SDS011;5824;49.336;8.652;2023-04-25T08:51:44;13.67;;;6.17;;
11535;SDS011;5824;49.336;8.652;2023-04-25T08:54:12;9.70;;;5.40;;
11535;SDS011;5824;49.336;8.652;2023-04-25T08:56:38;10.60;;;5.80;;
11535;SDS011;5824;49.336;8.652;2023-04-25T08:59:06;9.83;;;5.50;;
11535;SDS011;5824;49.336;8.652;2023-04-25T09:01:33;11.30;;;5.37;;
11535;SDS011;5824;49.336;8.652;2023-04-25T09:04:00;12.50;;;5.63;;
11535;SDS011;5824;49.336;8.652;2023-04-25T09:06:27;11.73;;;5.77;;
11535;SDS011;5824;49.336;8.652;2023-04-25T09:09:06;12.07;;;6.87;;
11535;SDS011;5824;49.336;8.652;2023-04-25T09:11:33;10.70;;;6.03;;
11535;SDS011;5824;49.336;8.652;2023-04-25T09:14:13;11.77;;;6.10;;
11535;SDS011;5824;49.336;8.652;2023-04-25T09:19:21;9.90;;;6.00;;
11535;SDS011;5824;49.336;8.652;2023-04-25T09:21:50;13.20;;;5.90;;
11535;SDS011;5824;49.336;8.652;2023-04-25T09:24:31;10.93;;;6.30;;
11535;SDS011;5824;49.336;8.652;2023-04-25T09:27:09;13.57;;;6.30;;
11535;SDS011;5824;49.336;8.652;2023-04-25T09:29:37;10.00;;;5.97;;
11535;SDS011;5824;49.336;8.652;2023-04-25T09:34:50;11.73;;;7.00;;
11535;SDS011;5824;49.336;8.652;2023-04-25T09:37:23;13.30;;;7.30;;
11535;SDS011;5824;49.336;8.652;2023-04-25T09:39:53;11.30;;;6.23;;
11535;SDS011;5824;49.336;8.652;2023-04-25T09:42:23;9.87;;;6.57;;
11535;SDS011;5824;49.336;8.652;2023-04-25T09:44:51;9.67;;;6.40;;
11535;SDS011;5824;49.336;8.652;2023-04-25T09:47:18;11.83;;;6.90;;
11535;SDS011;5824;49.336;8.652;2023-04-25T09:49:46;11.80;;;7.00;;
11535;SDS011;5824;49.336;8.652;2023-04-25T09:52:15;13.63;;;6.90;;
11535;SDS011;5824;49.336;8.652;2023-04-25T09:54:46;11.93;;;6.43;;
11535;SDS011;5824;49.336;8.652;2023-04-25T09:57:14;8.90;;;6.23;;
11535;SDS011;5824;49.336;8.652;2023-04-25T09:59:45;11.23;;;6.70;;
11535;SDS011;5824;49.336;8.652;2023-04-25T10:02:13;10.70;;;6.07;;
11535;SDS011;5824;49.336;8.652;2023-04-25T10:04:46;11.80;;;5.93;;
11535;SDS011;5824;49.336;8.652;2023-04-25T10:07:14;13.33;;;5.70;;
11535;SDS011;5824;49.336;8.652;2023-04-25T10:09:40;11.27;;;5.70;;
11535;SDS011;5824;49.336;8.652;2023-04-25T10:12:07;13.60;;;6.30;;
11535;SDS011;5824;49.336;8.652;2023-04-25T10:14:33;11.07;;;6.17;;
11535;SDS011;5824;49.336;8.652;2023-04-25T10:16:59;12.53;;;6.50;;
11535;SDS011;5824;49.336;8.652;2023-04-25T10:19:26;11.77;;;6.83;;
11535;SDS011;5824;49.336;8.652;2023-04-25T10:21:54;13.77;;;7.27;;
11535;SDS011;5824;49.336;8.652;2023-04-25T10:24:36;9.80;;;6.27;;
11535;SDS011;5824;49.336;8.652;2023-04-25T10:27:04;19.07;;;7.10;;
11535;SDS011;5824;49.336;8.652;2023-04-25T10:29:30;16.33;;;8.60;;
11535;SDS011;5824;49.336;8.652;2023-04-25T10:31:56;11.73;;;6.53;;
11535;SDS011;5824;49.336;8.652;2023-04-25T10:34:37;13.47;;;6.60;;
11535;SDS011;5824;49.336;8.652;2023-04-25T10:37:08;8.57;;;6.30;;
11535;SDS011;5824;49.336;8.652;2023-04-25T10:39:34;11.43;;;6.80;;
11535;SDS011;5824;49.336;8.652;2023-04-25T10:42:01;11.87;;;6.03;;
11535;SDS011;5824;49.336;8.652;2023-04-25T10:44:28;12.67;;;6.53;;
11535;SDS011;5824;49.336;8.652;2023-04-25T10:46:55;11.27;;;6.30;;
11535;SDS011;5824;49.336;8.652;2023-04-25T10:49:35;11.93;;;5.80;;
11535;SDS011;5824;49.336;8.652;2023-04-25T10:52:43;11.13;;;5.50;;
11535;SDS011;5824;49.336;8.652;2023-04-25T10:54:51;11.00;;;6.30;;
11535;SDS011;5824;49.336;8.652;2023-04-25T10:57:37;8.00;;;5.60;;
11535;SDS011;5824;49.336;8.652;2023-04-25T11:02:37;8.53;;;5.53;;
11535;SDS011;5824;49.336;8.652;2023-04-25T11:05:08;14.20;;;6.70;;
11535;SDS011;5824;49.336;8.652;2023-04-25T11:07:38;9.03;;;5.97;;
11535;SDS011;5824;49.336;8.652;2023-04-25T11:10:14;9.17;;;6.63;;
11535;SDS011;5824;49.336;8.652;2023-04-25T11:12:39;11.37;;;6.20;;
11535;SDS011;5824;49.336;8.652;2023-04-25T11:15:05;15.17;;;6.80;;
11535;SDS011;5824;49.336;8.652;2023-04-25T11:17:32;9.17;;;5.93;;
11535;SDS011;5824;49.336;8.652;2023-04-25T11:19:58;10.17;;;5.77;;
11535;SDS011;5824;49.336;8.652;2023-04-25T11:22:24;9.50;;;5.73;;
11535;SDS011;5824;49.336;8.652;2023-04-25T11:24:51;10.33;;;6.00;;
11535;SDS011;5824;49.336;8.652;2023-04-25T11:27:16;9.20;;;6.03;;
11535;SDS011;5824;49.336;8.652;2023-04-25T11:29:42;9.27;;;6.23;;
11535;SDS011;5824;49.336;8.652;2023-04-25T11:32:08;7.77;;;5.67;;
11535;SDS011;5824;49.336;8.652;2023-04-25T11:34:33;10.70;;;5.77;;
11535;SDS011;5824;49.336;8.652;2023-04-25T11:37:00;9.30;;;5.93;;
11535;SDS011;5824;49.336;8.652;2023-04-25T11:39:27;9.63;;;6.20;;
11535;SDS011;5824;49.336;8.652;2023-04-25T11:41:53;8.33;;;5.90;;
11535;SDS011;5824;49.336;8.652;2023-04-25T11:44:19;11.13;;;5.40;;
11535;SDS011;5824;49.336;8.652;2023-04-25T11:46:46;8.10;;;5.80;;
11535;SDS011;5824;49.336;8.652;2023-04-25T11:49:12;12.27;;;5.50;;
11535;SDS011;5824;49.336;8.652;2023-04-25T11:51:44;6.53;;;4.20;;
11535;SDS011;5824;49.336;8.652;2023-04-25T11:54:11;7.73;;;4.50;;
11535;SDS011;5824;49.336;8.652;2023-04-25T11:56:37;7.57;;;4.77;;
11535;SDS011;5824;49.336;8.652;2023-04-25T11:59:07;7.53;;;4.80;;
11535;SDS011;5824;49.336;8.652;2023-04-25T12:01:33;6.80;;;4.40;;
11535;SDS011;5824;49.336;8.652;2023-04-25T12:04:10;9.13;;;4.73;;
11535;SDS011;5824;49.336;8.652;2023-04-25T12:06:39;8.67;;;4.87;;
11535;SDS011;5824;49.336;8.652;2023-04-25T12:09:10;7.33;;;5.60;;
11535;SDS011;5824;49.336;8.652;2023-04-25T12:11:44;12.67;;;5.77;;
11535;SDS011;5824;49.336;8.652;2023-04-25T12:14:12;6.47;;;5.00;;
11535;SDS011;5824;49.336;8.652;2023-04-25T12:16:46;6.80;;;5.27;;
11535;SDS011;5824;49.336;8.652;2023-04-25T12:19:15;7.57;;;5.70;;
11535;SDS011;5824;49.336;8.652;2023-04-25T12:21:41;8.33;;;5.60;;
11535;SDS011;5824;49.336;8.652;2023-04-25T12:24:17;7.30;;;5.27;;
11535;SDS011;5824;49.336;8.652;2023-04-25T12:26:49;7.10;;;5.40;;
11535;SDS011;5824;49.336;8.652;2023-04-25T12:29:20;7.83;;;5.37;;
11535;SDS011;5824;49.336;8.652;2023-04-25T12:31:48;7.50;;;4.93;;
11535;SDS011;5824;49.336;8.652;2023-04-25T12:34:15;8.97;;;5.13;;
11535;SDS011;5824;49.336;8.652;2023-04-25T12:36:40;7.97;;;5.37;;
11535;SDS011;5824;49.336;8.652;2023-04-25T12:39:06;10.43;;;5.50;;
11535;SDS011;5824;49.336;8.652;2023-04-25T12:41:32;6.80;;;4.33;;
11535;SDS011;5824;49.336;8.652;2023-04-25T12:43:58;9.07;;;4.90;;
11535;SDS011;5824;49.336;8.652;2023-04-25T12:46:24;6.90;;;4.80;;
11535;SDS011;5824;49.336;8.652;2023-04-25T12:48:49;7.20;;;4.97;;
11535;SDS011;5824;49.336;8.652;2023-04-25T12:51:15;7.83;;;5.17;;
11535;SDS011;5824;49.336;8.652;2023-04-25T12:53:40;9.40;;;5.70;;
11535;SDS011;5824;49.336;8.652;2023-04-25T12:56:06;9.20;;;6.00;;
11535;SDS011;5824;49.336;8.652;2023-04-25T12:58:33;8.93;;;5.73;;
11535;SDS011;5824;49.336;8.652;2023-04-25T13:00:58;10.10;;;6.60;;
11535;SDS011;5824;49.336;8.652;2023-04-25T13:03:24;7.27;;;5.30;;
11535;SDS011;5824;49.336;8.652;2023-04-25T13:05:50;8.83;;;5.70;;
11535;SDS011;5824;49.336;8.652;2023-04-25T13:08:17;9.63;;;6.93;;
11535;SDS011;5824;49.336;8.652;2023-04-25T13:10:43;9.77;;;6.07;;
11535;SDS011;5824;49.336;8.652;2023-04-25T13:13:09;8.23;;;5.30;;
11535;SDS011;5824;49.336;8.652;2023-04-25T13:15:34;10.10;;;5.50;;
11535;SDS011;5824;49.336;8.652;2023-04-25T13:18:00;6.43;;;5.07;;
11535;SDS011;5824;49.336;8.652;2023-04-25T13:20:25;11.10;;;5.87;;
11535;SDS011;5824;49.336;8.652;2023-04-25T13:22:51;8.57;;;5.40;;
11535;SDS011;5824;49.336;8.652;2023-04-25T13:25:17;8.37;;;5.43;;
11535;SDS011;5824;49.336;8.652;2023-04-25T13:27:42;9.23;;;5.73;;
11535;SDS011;5824;49.336;8.652;2023-04-25T13:30:09;8.10;;;5.53;;
11535;SDS011;5824;49.336;8.652;2023-04-25T13:32:35;7.60;;;6.00;;
11535;SDS011;5824;49.336;8.652;2023-04-25T13:35:02;7.57;;;5.70;;
11535;SDS011;5824;49.336;8.652;2023-04-25T13:37:34;10.83;;;6.33;;
11535;SDS011;5824;49.336;8.652;2023-04-25T13:40:00;12.07;;;6.27;;
11535;SDS011;5824;49.336;8.652;2023-04-25T13:42:29;8.67;;;5.77;;
11535;SDS011;5824;49.336;8.652;2023-04-25T13:44:55;11.00;;;6.10;;
11535;SDS011;5824;49.336;8.652;2023-04-25T13:47:20;8.27;;;5.80;;
11535;SDS011;5824;49.336;8.652;2023-04-25T13:49:47;12.90;;;7.63;;
11535;SDS011;5824;49.336;8.652;2023-04-25T13:52:12;18.47;;;11.10;;
11535;SDS011;5824;49.336;8.652;2023-04-25T13:54:38;9.67;;;5.73;;
11535;SDS011;5824;49.336;8.652;2023-04-25T13:57:04;9.20;;;6.40;;
11535;SDS011;5824;49.336;8.652;2023-04-25T13:59:30;11.93;;;6.67;;
11535;SDS011;5824;49.336;8.652;2023-04-25T14:01:56;16.67;;;9.13;;
11535;SDS011;5824;49.336;8.652;2023-04-25T14:04:21;13.97;;;9.20;;
11535;SDS011;5824;49.336;8.652;2023-04-25T14:06:47;11.03;;;7.67;;
11535;SDS011;5824;49.336;8.652;2023-04-25T14:09:12;9.60;;;6.80;;
11535;SDS011;5824;49.336;8.652;2023-04-25T14:11:38;11.83;;;7.00;;
11535;SDS011;5824;49.336;8.652;2023-04-25T14:14:04;10.73;;;6.03;;
11535;SDS011;5824;49.336;8.652;2023-04-25T14:16:30;16.03;;;6.73;;
11535;SDS011;5824;49.336;8.652;2023-04-25T14:18:57;9.87;;;6.37;;
11535;SDS011;5824;49.336;8.652;2023-04-25T14:21:23;9.97;;;6.50;;
11535;SDS011;5824;49.336;8.652;2023-04-25T14:23:49;11.17;;;6.10;;
11535;SDS011;5824;49.336;8.652;2023-04-25T14:26:14;9.40;;;6.07;;
11535;SDS011;5824;49.336;8.652;2023-04-25T14:28:40;10.47;;;6.70;;
11535;SDS011;5824;49.336;8.652;2023-04-25T14:31:05;10.80;;;6.00;;
11535;SDS011;5824;49.336;8.652;2023-04-25T14:33:31;11.60;;;6.40;;
11535;SDS011;5824;49.336;8.652;2023-04-25T14:35:57;11.00;;;6.87;;
11535;SDS011;5824;49.336;8.652;2023-04-25T14:38:22;15.77;;;7.00;;
11535;SDS011;5824;49.336;8.652;2023-04-25T14:40:50;12.17;;;6.90;;
11535;SDS011;5824;49.336;8.652;2023-04-25T14:43:16;13.27;;;7.00;;
11535;SDS011;5824;49.336;8.652;2023-04-25T14:45:42;9.70;;;6.20;;
11535;SDS011;5824;49.336;8.652;2023-04-25T14:48:07;12.40;;;6.43;;
11535;SDS011;5824;49.336;8.652;2023-04-25T14:50:33;11.20;;;6.37;;
11535;SDS011;5824;49.336;8.652;2023-04-25T14:52:58;14.60;;;6.97;;
11535;SDS011;5824;49.336;8.652;2023-04-25T14:55:25;10.60;;;6.37;;
11535;SDS011;5824;49.336;8.652;2023-04-25T14:57:52;12.00;;;6.40;;
11535;SDS011;5824;49.336;8.652;2023-04-25T15:00:18;12.07;;;7.57;;
11535;SDS011;5824;49.336;8.652;2023-04-25T15:02:45;13.67;;;6.30;;
11535;SDS011;5824;49.336;8.652;2023-04-25T15:05:12;7.40;;;5.23;;
11535;SDS011;5824;49.336;8.652;2023-04-25T15:07:38;9.13;;;5.43;;
11535;SDS011;5824;49.336;8.652;2023-04-25T15:10:05;11.20;;;5.63;;
11535;SDS011;5824;49.336;8.652;2023-04-25T15:12:36;10.70;;;6.10;;